Cosco Hellas — SVCL9 — position and weather

sailwx.info

Track history (hours):
 
Tides and Currents Weather Stations Pressure Air Temp Water Temp Dewpoint Dewpoint Depression Visibility Wind Speed Wind Dir Waves Ship Positions

Cosco Hellas

Last reported at 2018-Jan-20 17:19 UTC. Time now 2018-Jan-20 19:23 UTC.
Position N 34°12' E 129°43'.

Length 351 m; draft 10.2 m.

Type: Cargo ship. MMSI: 241459000.

Date/timePositionNaut miles runAvg speedWind from/ knotsBaromVisibWave heightAir tempDewpointWater temp
2018-Jan-20 17:19N 34°12' E 129°43'516.2
2018-Jan-20 17:00N 34°16' E 129°48'816.1
2018-Jan-20 16:29N 34°21' E 129°55'816.0
2018-Jan-20 16:00N 34°27' E 130°02'816.1
2018-Jan-20 15:29N 34°33' E 130°09'816.3
2018-Jan-20 14:58N 34°39' E 130°15'816.8
2018-Jan-20 14:30N 34°46' E 130°21'60715.9
2018-Jan-19 00:18N 41°15' E 140°11'514.9
2018-Jan-19 00:00N 41°18' E 140°16'713.9
2018-Jan-18 23:30N 41°23' E 140°22'714.5
2018-Jan-18 23:00N 41°27' E 140°30'715.0
2018-Jan-18 22:30N 41°32' E 140°37'714.1
2018-Jan-18 22:00N 41°36' E 140°45'713.6
2018-Jan-18 21:30N 41°39' E 140°53'612.7
2018-Jan-18 21:00N 41°38' E 141°02'714.5
2018-Jan-18 20:30N 41°39' E 141°12'714.4
2018-Jan-18 20:00N 41°39' E 141°21'714.0
2018-Jan-18 19:30N 41°39' E 141°31'713.4
2018-Jan-18 19:00N 41°38' E 141°40'  
Track history (hours):
 
Tides and Currents Weather Stations Pressure Air Temp Water Temp Dewpoint Dewpoint Depression Visibility Wind Speed Wind Dir Waves Ship Positions

Cosco Hellas

Last reported at 2018-Jan-20 17:19 UTC. Time now 2018-Jan-20 19:23 UTC.
Position N 34°12' E 129°43'.

Length 351 m; draft 10.2 m.

Type: Cargo ship. MMSI: 241459000.

Date/timePositionNaut miles runAvg speedWind from/ knotsBaromVisibWave heightAir tempDewpointWater temp
2018-Jan-20 17:19N 34°12' E 129°43'516.2
2018-Jan-20 17:00N 34°16' E 129°48'816.1
2018-Jan-20 16:29N 34°21' E 129°55'816.0
2018-Jan-20 16:00N 34°27' E 130°02'816.1
2018-Jan-20 15:29N 34°33' E 130°09'816.3
2018-Jan-20 14:58N 34°39' E 130°15'816.8
2018-Jan-20 14:30N 34°46' E 130°21'60715.9
2018-Jan-19 00:18N 41°15' E 140°11'514.9
2018-Jan-19 00:00N 41°18' E 140°16'713.9
2018-Jan-18 23:30N 41°23' E 140°22'714.5
2018-Jan-18 23:00N 41°27' E 140°30'715.0
2018-Jan-18 22:30N 41°32' E 140°37'714.1
2018-Jan-18 22:00N 41°36' E 140°45'713.6
2018-Jan-18 21:30N 41°39' E 140°53'612.7
2018-Jan-18 21:00N 41°38' E 141°02'714.5
2018-Jan-18 20:30N 41°39' E 141°12'714.4
2018-Jan-18 20:00N 41°39' E 141°21'714.0
2018-Jan-18 19:30N 41°39' E 141°31'713.4
2018-Jan-18 19:00N 41°38' E 141°40'  

Dump ship's entire track history